ADDS METAR Data INFO
IDs: Format: Raw Decoded Include TAF

Data at: 0319 UTC 20 Jul 2018

KAWM 200253Z AUTO 14011KT 10SM FEW040 SCT047 28/24 A2987 RMK AO2 LTG DSNT SE AND S PRESRR SLP109 T02830244 53017 $
KAWM 200153Z AUTO 17004KT 10SM CLR 28/27 A2984 RMK AO2 LTG DSNT E AND SE SLP098 T02830272 $
KAWM 200053Z AUTO 00000KT 9SM CLR 30/27 A2984 RMK AO2 LTG DSNT E AND SE SLP098 T03000272 $
KAWM 192353Z AUTO 22003KT 10SM CLR 33/26 A2982 RMK AO2 LTG DSNT E SLP092 T03280261 10344 20322 57011 $
KAWM 192253Z AUTO 20003KT 9SM CLR 33/26 A2983 RMK AO2 SLP096 T03330261 $
KAWM 192153Z AUTO 20005KT 9SM CLR 33/26 A2984 RMK AO2 SLP099 T03330261 $
KAWM 192053Z AUTO 17007KT 10SM CLR 34/26 A2985 RMK AO2 SLP102 T03390256 58015 $
KAWM 191953Z AUTO 18006KT 10SM FEW034 33/26 A2987 RMK AO2 SLP109 T03330261 $
KAWM 191853Z AUTO 18007KT 130V220 10SM CLR 33/26 A2988 RMK AO2 SLP114 T03280256 $
KAWM 191753Z AUTO VRB04KT 10SM SCT090 33/26 A2990 RMK AO2 SLP118 T03280261 10328 20233 $
KAWM 191653Z AUTO 19007KT 150V220 10SM CLR 32/25 A2991 RMK AO2 SLP122 T03170250 $
KAWM 191553Z AUTO 16006KT 10SM CLR 30/26 A2991 RMK AO2 SLP124 T03000256
KAWM 191453Z AUTO 15007KT 10SM CLR 29/25 A2992 RMK AO2 SLP127 T02890250 58002
KAWM 191353Z AUTO 16005KT 10SM FEW095 27/24 A2994 RMK AO2 SLP133 T02720244
KAWM 191253Z AUTO 00000KT 7SM CLR 26/24 A2994 RMK AO2 SLP134 T02560244 $
KAWM 191208Z AUTO 00000KT 3SM BR CLR 24/24 A2993 RMK AO2 T02390239 $
KAWM 191153Z AUTO 00000KT 2 1/2SM BR CLR 23/23 A2993 RMK AO2 SLP130 70110 T02330233 10250 20233 52009 $
KAWM 191139Z AUTO 00000KT 2 1/2SM BR CLR 23/23 A2993 RMK AO2 T02330233 $
KAWM 191108Z AUTO 00000KT 1 1/2SM BR CLR 23/23 A2992 RMK AO2 T02330233 $
KAWM 191100Z AUTO 00000KT 2SM BR CLR 23/23 A2992 RMK AO2 T02330233 $
KAWM 191053Z AUTO 00000KT 1 3/4SM BR CLR 23/23 A2992 RMK AO2 SLP127 T02330233 $
KAWM 191045Z AUTO 00000KT 3/4SM BR CLR 23/23 A2992 RMK AO2 T02330233 $
KAWM 191032Z AUTO 00000KT 1 3/4SM BR CLR 23/23 A2992 RMK AO2 T02330233 $
KAWM 191025Z AUTO 00000KT 5SM BR CLR 23/23 A2991 RMK AO2 T02330233 $
KAWM 191015Z AUTO 00000KT 2SM BR CLR 23/23 A2991 RMK AO2 T02330233 $
KAWM 190953Z AUTO 00000KT 4SM BR CLR 24/24 A2991 RMK AO2 SLP125 T02390239 $
KAWM 190853Z AUTO 00000KT 6SM BR CLR 24/24 A2990 RMK AO2 SLP122 T02440239 56010 $
KAWM 190753Z AUTO 07004KT 5SM BR FEW080 24/24 A2991 RMK AO2 SLP124 T02440244 $
KAWM 190653Z AUTO 00000KT 4SM BR 25/25 A2992 RMK AO2 SLP127 T02500250 $
KAWM 190553Z AUTO 00000KT 3SM BR SCT042 25/25 A2993 RMK AO2 SLP131 60000 T02500250 10261 20244 403330239 56002 $
KAWM 190550Z AUTO 00000KT 3SM BR SCT042 24/24 A2993 RMK AO2 $
KAWM 190531Z AUTO 00000KT 2 1/2SM BR FEW055 24/24 A2993 RMK AO2 T02440244 $
KAWM 190518Z AUTO 00000KT 3SM BR FEW055 24/24 A2994 RMK AO2 T02440244 $
KAWM 190453Z AUTO 00000KT 2 1/2SM BR CLR 24/24 A2994 RMK AO2 SLP132 T02440244 $
KAWM 190440Z AUTO 00000KT 2 1/2SM BR CLR 24/24 A2994 RMK AO2 T02440244 $
KAWM 190420Z AUTO 00000KT 3SM BR CLR 25/25 A2993 RMK AO2 T02500250 $
KAWM 190412Z AUTO 00000KT 2 1/2SM BR FEW100 25/25 A2993 RMK AO2 T02500250 $
KAWM 190353Z AUTO 00000KT 5SM BR SCT100 25/25 A2994 RMK AO2 SLP133 T02500250 $
KAWM 190253Z AUTO 02003KT 6SM BR FEW110 25/25 A2994 RMK AO2 RAB21E43 SLP132 P0000 60000 T02500250 53010 $
KAWM 190153Z AUTO 00000KT 5SM BR 25/25 A2992 RMK AO2 SLP125 T02500250 $
KAWM 190053Z AUTO 06005KT 9SM 26/25 A2991 RMK AO2 SLP123 T02560250 $
KAWM 182353Z AUTO 00000KT 10SM CLR 26/24 A2991 RMK AO2 RAE03 SLP122 P0000 60110 T02560244 10328 20239 58013
KAWM 182310Z AUTO 07003KT 7SM FEW005 SCT039 26/25 A2992 RMK AO2 RAE03 P0000 T02610250
KAWM 182253Z AUTO 13003KT 8SM -RA SCT037 26/25 A2991 RMK AO2 SLP125 P0002 T02560250
KAWM 182153Z AUTO 12004KT 5SM -RA BR FEW005 SCT085 OVC110 25/24 A2994 RMK AO2 LTG DSNT E RAB22 SLP135 P0002 T02500244
KAWM 182053Z AUTO 07005KT 8SM FEW039 SCT065 SCT080 25/24 A2995 RMK AO2 LTG DSNT N-E RAE52 TSE27 SLP136 P0033 60106 T02500244 58004
KAWM 182030Z AUTO 00000KT 1SM +RA BR FEW008 BKN036 OVC085 24/24 A2995 RMK AO2 LTG DSNT NW-E TSE27 PRESFR P0032 T02440244
KAWM 182016Z AUTO 34006KT 3/4SM +TSRA BR FEW005 BKN033 OVC075 24/24 A2997 RMK AO2 LTG DSNT N AND SE AND NW P0019 T02390239
KAWM 182009Z AUTO 36007G16KT 2SM +TSRA BR FEW008 BKN034 OVC075 24/24 A2998 RMK AO2 LTG DSNT ALQDS P0008 T02440244
KAWM 182003Z AUTO 33009KT 3SM -TSRA BR SCT027 OVC080 24/24 A2998 RMK AO2 LTG DSNT ALQDS P0001 T02390239
KAWM 181957Z AUTO 19008KT 1SM TSRA BR BKN025 BKN049 OVC080 24/24 A2997 RMK AO2 LTG DSNT ALQDS P0001 T02390239
KAWM 181953Z AUTO 17014KT 1/2SM +TSRA FG OVC025 24/24 A2996 RMK AO2 LTG DSNT ALQDS RAB15 TSB1858E13B19 SLP142 P0070 T02440244
KAWM 181939Z AUTO 16010G14KT 1/2SM +TSRA FG BKN019 BKN027 OVC036 24/24 A2996 RMK AO2 LTG DSNT ALQDS RAB15 TSB1858E13B19 P0049 T02440239
KAWM 181931Z AUTO 14009KT 3/4SM +TSRA BR SCT021 BKN027 OVC045 26/24 A2996 RMK AO2 LTG DSNT ALQDS RAB15 TSB1858E13B19 PRESRR P0025 T02560244
KAWM 181928Z AUTO 13009KT 2SM +TSRA BR BKN025 BKN036 OVC045 26/24 A2996 RMK AO2 LTG DSNT ALQDS RAB15 TSB1858E13B19 PRESRR P0012 T02560239
KAWM 181858Z AUTO 15017KT 10SM TS FEW017 BKN026 OVC050 28/24 A2995 RMK AO2 LTG DSNT ALQDS TSB58 T02780244
KAWM 181853Z AUTO 10SM VCTS SCT026 BKN038 BKN050 31/24 A2995 RMK AO2 LTG DSNT ALQDS RAB13E44 TSB17E32 SLP136 P0003 T03060239
KAWM 181838Z AUTO 06006KT 8SM VCTS -RA SCT034 BKN046 OVC080 28/24 A2994 RMK AO2 LTG DSNT ALQDS RAB13 TSB17E32 P0003 T02830244
KAWM 181823Z AUTO 03008KT 7SM -TSRA FEW030 BKN075 OVC090 28/23 A2994 RMK AO2 LTG DSNT ALQDS RAB13 TSB17 P0001 T02830228
KAWM 181811Z AUTO 05008KT 10SM VCTS SCT030 BKN042 BKN075 29/23 A2995 RMK AO2 LTG DSNT E AND SW AND W T02940228
KAWM 181804Z AUTO 04010KT 10SM SCT028 BKN036 OVC075 31/23 A2995 RMK AO2 LTG DSNT SE-W T03060228
KAWM 181753Z AUTO 9SM BKN028 BKN034 33/26 A2996 RMK AO2 LTG DSNT SE AND W SLP138 T03280256 10333 20256 58010
KAWM 181653Z AUTO 17005KT 9SM FEW110 32/26 A2997 RMK AO2 SLP143 T03170256
KAWM 181553Z AUTO 14005KT 7SM CLR 31/26 A2998 RMK AO2 SLP146 T03110256